sensor_id;sensor_type;location;lat;lon;timestamp;P1;durP1;ratioP1;P2;durP2;ratioP2
73452;SDS011;61687;56.232;43.854;2024-03-23T00:51:26;12.23;;;6.70;;
73452;SDS011;61687;56.232;43.854;2024-03-23T00:53:53;14.02;;;6.80;;
73452;SDS011;61687;56.232;43.854;2024-03-23T00:56:19;15.77;;;6.45;;
73452;SDS011;61687;56.232;43.854;2024-03-23T00:58:44;14.70;;;6.30;;
73452;SDS011;61687;56.232;43.854;2024-03-23T01:01:11;14.65;;;6.70;;
73452;SDS011;61687;56.232;43.854;2024-03-23T01:03:37;11.50;;;6.07;;
73452;SDS011;61687;56.232;43.854;2024-03-23T01:06:02;18.80;;;7.33;;
73452;SDS011;61687;56.232;43.854;2024-03-23T01:08:32;18.77;;;6.90;;
73452;SDS011;61687;56.232;43.854;2024-03-23T01:10:58;13.52;;;6.35;;
73452;SDS011;61687;56.232;43.854;2024-03-23T01:13:26;18.20;;;6.45;;
73452;SDS011;61687;56.232;43.854;2024-03-23T01:15:53;14.88;;;7.00;;
73452;SDS011;61687;56.232;43.854;2024-03-23T01:18:20;13.00;;;6.80;;
73452;SDS011;61687;56.232;43.854;2024-03-23T01:20:47;15.25;;;6.88;;
73452;SDS011;61687;56.232;43.854;2024-03-23T01:23:13;12.27;;;7.07;;
73452;SDS011;61687;56.232;43.854;2024-03-23T01:25:39;15.00;;;7.50;;
73452;SDS011;61687;56.232;43.854;2024-03-23T01:28:05;15.07;;;7.40;;
73452;SDS011;61687;56.232;43.854;2024-03-23T01:30:32;12.67;;;6.40;;
73452;SDS011;61687;56.232;43.854;2024-03-23T01:32:58;14.55;;;6.60;;
73452;SDS011;61687;56.232;43.854;2024-03-23T01:35:24;16.92;;;7.93;;
73452;SDS011;61687;56.232;43.854;2024-03-23T01:37:50;16.85;;;7.07;;
73452;SDS011;61687;56.232;43.854;2024-03-23T01:40:18;18.00;;;7.67;;
73452;SDS011;61687;56.232;43.854;2024-03-23T01:42:57;19.15;;;7.45;;
73452;SDS011;61687;56.232;43.854;2024-03-23T01:45:31;16.35;;;8.48;;
73452;SDS011;61687;56.232;43.854;2024-03-23T01:47:57;17.70;;;8.40;;
73452;SDS011;61687;56.232;43.854;2024-03-23T01:50:24;17.75;;;8.82;;
73452;SDS011;61687;56.232;43.854;2024-03-23T01:52:50;24.52;;;9.32;;
73452;SDS011;61687;56.232;43.854;2024-03-23T01:55:16;20.92;;;8.80;;
73452;SDS011;61687;56.232;43.854;2024-03-23T01:57:43;21.90;;;8.75;;
73452;SDS011;61687;56.232;43.854;2024-03-23T02:00:09;20.53;;;8.87;;
73452;SDS011;61687;56.232;43.854;2024-03-23T02:02:43;20.77;;;8.88;;
73452;SDS011;61687;56.232;43.854;2024-03-23T02:05:10;17.58;;;9.30;;
73452;SDS011;61687;56.232;43.854;2024-03-23T02:07:37;22.88;;;8.65;;
73452;SDS011;61687;56.232;43.854;2024-03-23T02:10:06;23.02;;;8.93;;
73452;SDS011;61687;56.232;43.854;2024-03-23T02:12:32;21.00;;;8.93;;
73452;SDS011;61687;56.232;43.854;2024-03-23T02:14:59;23.52;;;9.27;;
73452;SDS011;61687;56.232;43.854;2024-03-23T02:17:25;18.08;;;9.52;;
73452;SDS011;61687;56.232;43.854;2024-03-23T02:19:51;17.77;;;8.35;;
73452;SDS011;61687;56.232;43.854;2024-03-23T02:22:17;19.70;;;9.37;;
73452;SDS011;61687;56.232;43.854;2024-03-23T02:24:43;17.48;;;9.52;;
73452;SDS011;61687;56.232;43.854;2024-03-23T02:27:09;20.20;;;8.70;;
73452;SDS011;61687;56.232;43.854;2024-03-23T02:29:35;16.50;;;8.52;;
73452;SDS011;61687;56.232;43.854;2024-03-23T02:32:00;24.33;;;9.65;;
73452;SDS011;61687;56.232;43.854;2024-03-23T02:34:27;18.40;;;9.43;;
73452;SDS011;61687;56.232;43.854;2024-03-23T02:36:52;23.33;;;9.90;;
73452;SDS011;61687;56.232;43.854;2024-03-23T02:39:18;20.83;;;9.65;;
73452;SDS011;61687;56.232;43.854;2024-03-23T02:41:44;20.33;;;9.67;;
73452;SDS011;61687;56.232;43.854;2024-03-23T02:44:10;22.52;;;9.85;;
73452;SDS011;61687;56.232;43.854;2024-03-23T02:46:37;22.85;;;9.73;;
73452;SDS011;61687;56.232;43.854;2024-03-23T02:49:04;17.20;;;8.73;;
73452;SDS011;61687;56.232;43.854;2024-03-23T02:51:30;17.60;;;8.57;;
73452;SDS011;61687;56.232;43.854;2024-03-23T02:53:56;17.63;;;9.35;;
73452;SDS011;61687;56.232;43.854;2024-03-23T02:56:22;19.35;;;8.05;;
73452;SDS011;61687;56.232;43.854;2024-03-23T02:58:48;18.15;;;9.55;;
73452;SDS011;61687;56.232;43.854;2024-03-23T03:01:14;15.97;;;9.20;;
73452;SDS011;61687;56.232;43.854;2024-03-23T03:03:40;21.63;;;9.30;;
73452;SDS011;61687;56.232;43.854;2024-03-23T03:06:06;19.77;;;9.93;;
73452;SDS011;61687;56.232;43.854;2024-03-23T03:08:32;19.53;;;9.10;;
73452;SDS011;61687;56.232;43.854;2024-03-23T03:10:58;19.45;;;9.95;;
73452;SDS011;61687;56.232;43.854;2024-03-23T03:13:24;20.15;;;9.40;;
73452;SDS011;61687;56.232;43.854;2024-03-23T03:15:50;24.70;;;9.90;;
73452;SDS011;61687;56.232;43.854;2024-03-23T03:18:15;19.90;;;10.55;;
73452;SDS011;61687;56.232;43.854;2024-03-23T03:20:41;24.77;;;10.57;;
73452;SDS011;61687;56.232;43.854;2024-03-23T03:23:07;19.97;;;9.07;;
73452;SDS011;61687;56.232;43.854;2024-03-23T03:25:33;24.33;;;10.68;;
73452;SDS011;61687;56.232;43.854;2024-03-23T03:27:59;21.00;;;8.88;;
73452;SDS011;61687;56.232;43.854;2024-03-23T03:30:25;18.30;;;8.63;;
73452;SDS011;61687;56.232;43.854;2024-03-23T03:32:52;21.02;;;9.05;;
73452;SDS011;61687;56.232;43.854;2024-03-23T03:35:19;16.70;;;9.02;;
73452;SDS011;61687;56.232;43.854;2024-03-23T03:37:45;22.10;;;10.45;;
73452;SDS011;61687;56.232;43.854;2024-03-23T03:40:11;22.00;;;10.10;;
73452;SDS011;61687;56.232;43.854;2024-03-23T03:42:40;18.75;;;9.88;;
73452;SDS011;61687;56.232;43.854;2024-03-23T03:45:07;23.33;;;10.02;;
73452;SDS011;61687;56.232;43.854;2024-03-23T03:47:33;22.75;;;10.30;;
73452;SDS011;61687;56.232;43.854;2024-03-23T03:49:59;21.38;;;9.95;;
73452;SDS011;61687;56.232;43.854;2024-03-23T03:52:25;31.77;;;10.82;;
73452;SDS011;61687;56.232;43.854;2024-03-23T03:54:55;20.83;;;10.00;;
73452;SDS011;61687;56.232;43.854;2024-03-23T03:57:29;20.30;;;10.75;;
73452;SDS011;61687;56.232;43.854;2024-03-23T03:59:55;26.30;;;10.82;;
73452;SDS011;61687;56.232;43.854;2024-03-23T04:02:21;22.03;;;10.30;;
73452;SDS011;61687;56.232;43.854;2024-03-23T04:04:47;32.70;;;11.63;;
73452;SDS011;61687;56.232;43.854;2024-03-23T04:07:13;21.08;;;9.82;;
73452;SDS011;61687;56.232;43.854;2024-03-23T04:09:39;22.17;;;10.30;;
73452;SDS011;61687;56.232;43.854;2024-03-23T04:12:05;20.67;;;10.80;;
73452;SDS011;61687;56.232;43.854;2024-03-23T04:14:31;27.88;;;11.10;;
73452;SDS011;61687;56.232;43.854;2024-03-23T04:16:57;29.03;;;11.10;;
73452;SDS011;61687;56.232;43.854;2024-03-23T04:19:23;24.92;;;11.02;;
73452;SDS011;61687;56.232;43.854;2024-03-23T04:21:49;22.83;;;10.35;;
73452;SDS011;61687;56.232;43.854;2024-03-23T04:24:14;23.43;;;10.17;;
73452;SDS011;61687;56.232;43.854;2024-03-23T04:26:44;24.60;;;10.93;;
73452;SDS011;61687;56.232;43.854;2024-03-23T04:29:09;23.42;;;10.13;;
73452;SDS011;61687;56.232;43.854;2024-03-23T04:31:35;25.00;;;11.53;;
73452;SDS011;61687;56.232;43.854;2024-03-23T04:34:01;23.30;;;11.95;;
73452;SDS011;61687;56.232;43.854;2024-03-23T04:36:27;25.20;;;12.05;;
73452;SDS011;61687;56.232;43.854;2024-03-23T04:38:53;23.48;;;11.50;;
73452;SDS011;61687;56.232;43.854;2024-03-23T04:41:19;27.07;;;12.00;;
73452;SDS011;61687;56.232;43.854;2024-03-23T04:43:45;23.67;;;11.13;;
73452;SDS011;61687;56.232;43.854;2024-03-23T04:46:11;28.17;;;12.88;;
73452;SDS011;61687;56.232;43.854;2024-03-23T04:48:37;25.77;;;11.67;;
73452;SDS011;61687;56.232;43.854;2024-03-23T04:51:03;26.60;;;12.27;;
73452;SDS011;61687;56.232;43.854;2024-03-23T04:53:29;29.20;;;12.60;;
73452;SDS011;61687;56.232;43.854;2024-03-23T04:55:55;26.00;;;11.65;;
73452;SDS011;61687;56.232;43.854;2024-03-23T04:58:22;30.10;;;12.07;;
73452;SDS011;61687;56.232;43.854;2024-03-23T05:00:54;26.40;;;11.88;;
73452;SDS011;61687;56.232;43.854;2024-03-23T05:03:21;28.50;;;13.02;;
73452;SDS011;61687;56.232;43.854;2024-03-23T05:05:50;27.75;;;12.80;;
73452;SDS011;61687;56.232;43.854;2024-03-23T05:08:16;28.60;;;13.00;;
73452;SDS011;61687;56.232;43.854;2024-03-23T05:10:42;26.25;;;11.98;;
73452;SDS011;61687;56.232;43.854;2024-03-23T05:13:08;27.77;;;12.07;;
73452;SDS011;61687;56.232;43.854;2024-03-23T05:15:35;27.65;;;12.20;;
73452;SDS011;61687;56.232;43.854;2024-03-23T05:18:01;25.60;;;11.82;;
73452;SDS011;61687;56.232;43.854;2024-03-23T05:20:27;22.85;;;11.70;;
73452;SDS011;61687;56.232;43.854;2024-03-23T05:22:54;25.77;;;12.10;;
73452;SDS011;61687;56.232;43.854;2024-03-23T05:25:20;25.80;;;12.10;;
73452;SDS011;61687;56.232;43.854;2024-03-23T05:27:46;31.02;;;13.63;;
73452;SDS011;61687;56.232;43.854;2024-03-23T05:30:12;27.45;;;12.88;;
73452;SDS011;61687;56.232;43.854;2024-03-23T05:32:38;27.77;;;12.23;;
73452;SDS011;61687;56.232;43.854;2024-03-23T05:35:09;33.53;;;12.50;;
73452;SDS011;61687;56.232;43.854;2024-03-23T05:37:35;25.23;;;12.57;;
73452;SDS011;61687;56.232;43.854;2024-03-23T05:40:01;26.92;;;12.60;;
73452;SDS011;61687;56.232;43.854;2024-03-23T05:42:29;32.95;;;12.88;;
73452;SDS011;61687;56.232;43.854;2024-03-23T05:44:55;26.90;;;12.70;;
73452;SDS011;61687;56.232;43.854;2024-03-23T05:47:21;25.73;;;12.00;;
73452;SDS011;61687;56.232;43.854;2024-03-23T05:49:47;24.60;;;12.52;;
73452;SDS011;61687;56.232;43.854;2024-03-23T05:52:13;27.60;;;11.83;;
73452;SDS011;61687;56.232;43.854;2024-03-23T05:54:39;29.95;;;12.65;;
73452;SDS011;61687;56.232;43.854;2024-03-23T05:57:05;25.58;;;11.85;;
73452;SDS011;61687;56.232;43.854;2024-03-23T05:59:34;29.65;;;12.85;;
73452;SDS011;61687;56.232;43.854;2024-03-23T06:02:00;24.63;;;12.53;;
73452;SDS011;61687;56.232;43.854;2024-03-23T06:04:26;31.05;;;12.82;;
73452;SDS011;61687;56.232;43.854;2024-03-23T06:06:52;25.50;;;12.32;;
73452;SDS011;61687;56.232;43.854;2024-03-23T06:09:18;27.35;;;12.85;;
73452;SDS011;61687;56.232;43.854;2024-03-23T06:11:45;25.08;;;12.77;;
73452;SDS011;61687;56.232;43.854;2024-03-23T06:14:11;25.15;;;10.93;;
73452;SDS011;61687;56.232;43.854;2024-03-23T06:16:37;26.50;;;12.27;;
73452;SDS011;61687;56.232;43.854;2024-03-23T06:19:03;26.98;;;12.50;;
73452;SDS011;61687;56.232;43.854;2024-03-23T06:21:30;24.65;;;12.15;;
73452;SDS011;61687;56.232;43.854;2024-03-23T06:23:56;27.25;;;12.32;;
73452;SDS011;61687;56.232;43.854;2024-03-23T06:26:22;24.47;;;11.97;;
73452;SDS011;61687;56.232;43.854;2024-03-23T06:28:47;24.15;;;11.82;;
73452;SDS011;61687;56.232;43.854;2024-03-23T06:31:13;24.52;;;12.20;;
73452;SDS011;61687;56.232;43.854;2024-03-23T06:33:39;23.67;;;12.17;;
73452;SDS011;61687;56.232;43.854;2024-03-23T06:36:11;25.45;;;13.02;;
73452;SDS011;61687;56.232;43.854;2024-03-23T06:38:37;24.35;;;12.50;;
73452;SDS011;61687;56.232;43.854;2024-03-23T06:41:04;26.05;;;11.55;;
73452;SDS011;61687;56.232;43.854;2024-03-23T06:43:30;25.65;;;12.13;;
73452;SDS011;61687;56.232;43.854;2024-03-23T06:45:56;20.67;;;11.13;;
73452;SDS011;61687;56.232;43.854;2024-03-23T06:48:22;24.38;;;13.02;;
73452;SDS011;61687;56.232;43.854;2024-03-23T06:50:48;26.20;;;12.25;;
73452;SDS011;61687;56.232;43.854;2024-03-23T06:53:14;26.92;;;12.20;;
73452;SDS011;61687;56.232;43.854;2024-03-23T06:55:41;26.10;;;13.27;;
73452;SDS011;61687;56.232;43.854;2024-03-23T06:58:07;24.25;;;11.70;;
73452;SDS011;61687;56.232;43.854;2024-03-23T07:00:33;24.65;;;12.93;;
73452;SDS011;61687;56.232;43.854;2024-03-23T07:03:00;23.52;;;11.85;;
73452;SDS011;61687;56.232;43.854;2024-03-23T07:05:26;25.17;;;12.40;;
73452;SDS011;61687;56.232;43.854;2024-03-23T07:07:51;25.33;;;11.43;;
73452;SDS011;61687;56.232;43.854;2024-03-23T07:10:17;25.17;;;12.05;;
73452;SDS011;61687;56.232;43.854;2024-03-23T07:12:43;27.25;;;12.88;;
73452;SDS011;61687;56.232;43.854;2024-03-23T07:15:09;22.83;;;11.97;;
73452;SDS011;61687;56.232;43.854;2024-03-23T07:17:35;24.98;;;11.93;;
73452;SDS011;61687;56.232;43.854;2024-03-23T07:20:01;25.67;;;12.15;;
73452;SDS011;61687;56.232;43.854;2024-03-23T07:22:30;25.30;;;11.48;;
73452;SDS011;61687;56.232;43.854;2024-03-23T07:24:59;27.95;;;12.05;;
73452;SDS011;61687;56.232;43.854;2024-03-23T07:27:27;31.15;;;12.95;;
73452;SDS011;61687;56.232;43.854;2024-03-23T07:29:53;28.05;;;12.43;;
73452;SDS011;61687;56.232;43.854;2024-03-23T07:32:20;28.63;;;12.52;;
73452;SDS011;61687;56.232;43.854;2024-03-23T07:34:46;25.03;;;12.70;;
73452;SDS011;61687;56.232;43.854;2024-03-23T07:37:12;24.40;;;11.45;;
73452;SDS011;61687;56.232;43.854;2024-03-23T07:39:41;30.90;;;12.65;;
73452;SDS011;61687;56.232;43.854;2024-03-23T07:42:07;24.85;;;11.90;;
73452;SDS011;61687;56.232;43.854;2024-03-23T07:44:33;29.57;;;12.47;;
73452;SDS011;61687;56.232;43.854;2024-03-23T07:47:00;30.90;;;12.70;;
73452;SDS011;61687;56.232;43.854;2024-03-23T07:49:26;24.33;;;11.43;;
73452;SDS011;61687;56.232;43.854;2024-03-23T07:51:52;22.30;;;12.40;;
73452;SDS011;61687;56.232;43.854;2024-03-23T07:54:18;21.73;;;11.93;;
73452;SDS011;61687;56.232;43.854;2024-03-23T07:56:44;19.35;;;10.88;;
73452;SDS011;61687;56.232;43.854;2024-03-23T07:59:10;25.17;;;13.00;;
73452;SDS011;61687;56.232;43.854;2024-03-23T08:01:36;26.33;;;12.38;;
73452;SDS011;61687;56.232;43.854;2024-03-23T08:04:02;24.15;;;12.52;;
73452;SDS011;61687;56.232;43.854;2024-03-23T08:06:28;24.05;;;10.77;;
73452;SDS011;61687;56.232;43.854;2024-03-23T08:08:54;20.37;;;10.07;;
73452;SDS011;61687;56.232;43.854;2024-03-23T08:11:30;25.95;;;11.98;;
73452;SDS011;61687;56.232;43.854;2024-03-23T08:13:58;23.00;;;10.77;;
73452;SDS011;61687;56.232;43.854;2024-03-23T08:16:24;22.77;;;10.77;;
73452;SDS011;61687;56.232;43.854;2024-03-23T08:18:53;24.73;;;11.40;;
73452;SDS011;61687;56.232;43.854;2024-03-23T08:21:23;26.50;;;12.17;;
73452;SDS011;61687;56.232;43.854;2024-03-23T08:23:50;28.00;;;11.40;;
73452;SDS011;61687;56.232;43.854;2024-03-23T08:26:16;23.90;;;12.18;;
73452;SDS011;61687;56.232;43.854;2024-03-23T08:28:45;26.08;;;13.43;;
73452;SDS011;61687;56.232;43.854;2024-03-23T08:31:12;25.10;;;11.43;;
73452;SDS011;61687;56.232;43.854;2024-03-23T08:33:38;21.85;;;10.40;;
73452;SDS011;61687;56.232;43.854;2024-03-23T08:36:05;25.73;;;11.07;;
73452;SDS011;61687;56.232;43.854;2024-03-23T08:38:33;22.77;;;11.73;;
73452;SDS011;61687;56.232;43.854;2024-03-23T08:41:00;20.42;;;11.25;;
73452;SDS011;61687;56.232;43.854;2024-03-23T08:43:28;24.10;;;11.53;;
73452;SDS011;61687;56.232;43.854;2024-03-23T08:46:06;26.35;;;12.55;;
73452;SDS011;61687;56.232;43.854;2024-03-23T08:48:41;22.02;;;12.13;;
73452;SDS011;61687;56.232;43.854;2024-03-23T08:51:12;22.80;;;10.88;;
73452;SDS011;61687;56.232;43.854;2024-03-23T08:53:39;25.92;;;11.90;;
73452;SDS011;61687;56.232;43.854;2024-03-23T08:56:07;23.05;;;11.25;;
73452;SDS011;61687;56.232;43.854;2024-03-23T08:58:34;22.13;;;10.98;;
73452;SDS011;61687;56.232;43.854;2024-03-23T09:01:11;24.55;;;11.30;;
73452;SDS011;61687;56.232;43.854;2024-03-23T09:03:39;22.50;;;11.73;;
73452;SDS011;61687;56.232;43.854;2024-03-23T09:06:09;22.17;;;12.13;;
73452;SDS011;61687;56.232;43.854;2024-03-23T09:08:37;24.47;;;11.77;;
73452;SDS011;61687;56.232;43.854;2024-03-23T09:11:05;21.40;;;11.40;;
73452;SDS011;61687;56.232;43.854;2024-03-23T09:13:36;19.48;;;10.18;;
73452;SDS011;61687;56.232;43.854;2024-03-23T09:16:03;23.02;;;10.68;;
73452;SDS011;61687;56.232;43.854;2024-03-23T09:18:31;21.98;;;10.73;;
73452;SDS011;61687;56.232;43.854;2024-03-23T09:20:58;24.10;;;11.50;;
73452;SDS011;61687;56.232;43.854;2024-03-23T09:23:24;21.08;;;11.32;;
73452;SDS011;61687;56.232;43.854;2024-03-23T09:25:50;21.52;;;10.40;;
73452;SDS011;61687;56.232;43.854;2024-03-23T09:28:16;23.25;;;10.38;;
73452;SDS011;61687;56.232;43.854;2024-03-23T09:30:43;22.27;;;10.43;;
73452;SDS011;61687;56.232;43.854;2024-03-23T09:33:10;20.13;;;11.37;;
73452;SDS011;61687;56.232;43.854;2024-03-23T09:35:40;20.60;;;11.07;;
73452;SDS011;61687;56.232;43.854;2024-03-23T09:38:06;22.00;;;10.50;;
73452;SDS011;61687;56.232;43.854;2024-03-23T09:40:33;19.30;;;10.30;;
73452;SDS011;61687;56.232;43.854;2024-03-23T09:42:59;19.05;;;10.35;;
73452;SDS011;61687;56.232;43.854;2024-03-23T09:45:28;20.63;;;10.40;;
73452;SDS011;61687;56.232;43.854;2024-03-23T09:47:55;22.15;;;10.57;;
73452;SDS011;61687;56.232;43.854;2024-03-23T09:50:22;18.05;;;10.25;;
73452;SDS011;61687;56.232;43.854;2024-03-23T09:52:48;24.02;;;10.68;;
73452;SDS011;61687;56.232;43.854;2024-03-23T09:55:14;19.48;;;9.93;;
73452;SDS011;61687;56.232;43.854;2024-03-23T09:57:41;19.00;;;10.43;;
73452;SDS011;61687;56.232;43.854;2024-03-23T10:00:07;22.75;;;10.18;;
73452;SDS011;61687;56.232;43.854;2024-03-23T10:02:34;20.42;;;10.10;;
73452;SDS011;61687;56.232;43.854;2024-03-23T10:05:01;18.55;;;10.73;;
73452;SDS011;61687;56.232;43.854;2024-03-23T10:07:30;20.98;;;10.85;;
73452;SDS011;61687;56.232;43.854;2024-03-23T10:09:56;20.10;;;11.23;;
73452;SDS011;61687;56.232;43.854;2024-03-23T10:12:22;23.33;;;11.30;;
73452;SDS011;61687;56.232;43.854;2024-03-23T10:14:50;20.25;;;11.38;;
73452;SDS011;61687;56.232;43.854;2024-03-23T10:17:20;19.20;;;10.55;;
73452;SDS011;61687;56.232;43.854;2024-03-23T10:19:50;20.87;;;10.43;;
73452;SDS011;61687;56.232;43.854;2024-03-23T10:22:18;21.75;;;10.85;;
73452;SDS011;61687;56.232;43.854;2024-03-23T10:24:46;17.40;;;10.55;;
73452;SDS011;61687;56.232;43.854;2024-03-23T10:27:19;20.50;;;10.80;;
73452;SDS011;61687;56.232;43.854;2024-03-23T10:29:50;21.40;;;12.82;;
73452;SDS011;61687;56.232;43.854;2024-03-23T10:32:16;23.83;;;11.13;;
73452;SDS011;61687;56.232;43.854;2024-03-23T10:34:43;20.63;;;11.48;;
73452;SDS011;61687;56.232;43.854;2024-03-23T10:37:10;25.13;;;11.88;;
73452;SDS011;61687;56.232;43.854;2024-03-23T10:39:40;21.60;;;11.35;;
73452;SDS011;61687;56.232;43.854;2024-03-23T10:42:07;26.67;;;11.90;;
73452;SDS011;61687;56.232;43.854;2024-03-23T10:44:36;25.17;;;12.03;;
73452;SDS011;61687;56.232;43.854;2024-03-23T10:47:02;20.35;;;10.90;;
73452;SDS011;61687;56.232;43.854;2024-03-23T10:49:29;23.77;;;12.73;;
73452;SDS011;61687;56.232;43.854;2024-03-23T10:51:58;23.40;;;11.98;;
73452;SDS011;61687;56.232;43.854;2024-03-23T10:54:25;21.42;;;11.25;;
73452;SDS011;61687;56.232;43.854;2024-03-23T10:57:13;20.83;;;11.50;;
73452;SDS011;61687;56.232;43.854;2024-03-23T10:59:43;25.30;;;11.23;;
73452;SDS011;61687;56.232;43.854;2024-03-23T11:02:20;23.30;;;11.55;;
73452;SDS011;61687;56.232;43.854;2024-03-23T11:04:47;20.20;;;11.27;;
73452;SDS011;61687;56.232;43.854;2024-03-23T11:07:29;23.40;;;12.00;;
73452;SDS011;61687;56.232;43.854;2024-03-23T11:09:57;17.70;;;11.30;;
73452;SDS011;61687;56.232;43.854;2024-03-23T11:14:54;18.60;;;10.95;;
73452;SDS011;61687;56.232;43.854;2024-03-23T11:17:24;19.63;;;11.13;;
73452;SDS011;61687;56.232;43.854;2024-03-23T11:20:01;20.90;;;11.10;;
73452;SDS011;61687;56.232;43.854;2024-03-23T11:25:21;19.38;;;10.80;;
73452;SDS011;61687;56.232;43.854;2024-03-23T11:30:37;21.25;;;10.77;;
73452;SDS011;61687;56.232;43.854;2024-03-23T11:33:06;19.37;;;10.70;;
73452;SDS011;61687;56.232;43.854;2024-03-23T11:35:34;19.85;;;11.02;;
73452;SDS011;61687;56.232;43.854;2024-03-23T11:40:38;23.27;;;12.15;;
73452;SDS011;61687;56.232;43.854;2024-03-23T11:43:07;21.05;;;10.93;;
73452;SDS011;61687;56.232;43.854;2024-03-23T11:45:44;23.10;;;12.00;;
73452;SDS011;61687;56.232;43.854;2024-03-23T11:48:11;25.02;;;12.10;;
73452;SDS011;61687;56.232;43.854;2024-03-23T11:50:38;22.58;;;12.63;;
73452;SDS011;61687;56.232;43.854;2024-03-23T11:53:23;23.05;;;12.32;;
73452;SDS011;61687;56.232;43.854;2024-03-23T11:55:50;29.00;;;12.95;;
73452;SDS011;61687;56.232;43.854;2024-03-23T11:58:23;22.87;;;12.30;;
73452;SDS011;61687;56.232;43.854;2024-03-23T12:01:00;24.48;;;12.63;;
73452;SDS011;61687;56.232;43.854;2024-03-23T12:03:28;24.40;;;13.10;;
73452;SDS011;61687;56.232;43.854;2024-03-23T12:05:55;27.67;;;13.43;;
73452;SDS011;61687;56.232;43.854;2024-03-23T12:10:51;25.20;;;14.00;;
73452;SDS011;61687;56.232;43.854;2024-03-23T12:13:21;24.92;;;14.18;;
73452;SDS011;61687;56.232;43.854;2024-03-23T12:15:49;26.77;;;14.05;;
73452;SDS011;61687;56.232;43.854;2024-03-23T12:18:16;27.52;;;14.02;;
73452;SDS011;61687;56.232;43.854;2024-03-23T12:20:43;27.42;;;14.98;;
73452;SDS011;61687;56.232;43.854;2024-03-23T12:23:11;28.13;;;13.10;;
73452;SDS011;61687;56.232;43.854;2024-03-23T12:25:41;26.02;;;14.48;;
73452;SDS011;61687;56.232;43.854;2024-03-23T12:28:07;26.15;;;14.00;;
73452;SDS011;61687;56.232;43.854;2024-03-23T12:30:34;26.45;;;14.25;;
73452;SDS011;61687;56.232;43.854;2024-03-23T12:33:02;26.13;;;13.65;;
73452;SDS011;61687;56.232;43.854;2024-03-23T12:35:28;28.02;;;14.27;;
73452;SDS011;61687;56.232;43.854;2024-03-23T12:37:54;27.45;;;13.55;;
73452;SDS011;61687;56.232;43.854;2024-03-23T12:40:20;31.70;;;15.30;;
73452;SDS011;61687;56.232;43.854;2024-03-23T12:42:46;28.40;;;14.05;;
73452;SDS011;61687;56.232;43.854;2024-03-23T12:45:12;31.63;;;15.38;;
73452;SDS011;61687;56.232;43.854;2024-03-23T12:47:38;29.63;;;14.63;;
73452;SDS011;61687;56.232;43.854;2024-03-23T12:50:04;30.92;;;14.18;;
73452;SDS011;61687;56.232;43.854;2024-03-23T12:52:31;31.33;;;15.27;;
73452;SDS011;61687;56.232;43.854;2024-03-23T12:54:58;31.80;;;17.15;;
73452;SDS011;61687;56.232;43.854;2024-03-23T12:57:24;33.20;;;16.13;;
73452;SDS011;61687;56.232;43.854;2024-03-23T12:59:53;33.58;;;15.43;;
73452;SDS011;61687;56.232;43.854;2024-03-23T13:02:19;33.03;;;15.77;;
73452;SDS011;61687;56.232;43.854;2024-03-23T13:04:46;32.70;;;16.42;;
73452;SDS011;61687;56.232;43.854;2024-03-23T13:07:15;31.27;;;15.55;;
73452;SDS011;61687;56.232;43.854;2024-03-23T13:09:42;35.22;;;15.82;;
73452;SDS011;61687;56.232;43.854;2024-03-23T13:12:09;32.83;;;15.52;;
73452;SDS011;61687;56.232;43.854;2024-03-23T13:14:35;35.70;;;15.90;;
73452;SDS011;61687;56.232;43.854;2024-03-23T13:17:01;36.35;;;16.77;;
73452;SDS011;61687;56.232;43.854;2024-03-23T13:19:28;36.22;;;15.95;;
73452;SDS011;61687;56.232;43.854;2024-03-23T13:21:56;36.40;;;16.58;;
73452;SDS011;61687;56.232;43.854;2024-03-23T13:24:27;33.40;;;15.83;;
73452;SDS011;61687;56.232;43.854;2024-03-23T13:26:54;36.53;;;16.13;;
73452;SDS011;61687;56.232;43.854;2024-03-23T13:29:22;34.67;;;17.95;;
73452;SDS011;61687;56.232;43.854;2024-03-23T13:31:49;34.30;;;15.57;;
73452;SDS011;61687;56.232;43.854;2024-03-23T13:34:16;34.25;;;17.15;;
73452;SDS011;61687;56.232;43.854;2024-03-23T13:36:44;34.67;;;16.23;;
73452;SDS011;61687;56.232;43.854;2024-03-23T13:39:11;36.92;;;17.52;;
73452;SDS011;61687;56.232;43.854;2024-03-23T13:41:40;36.83;;;17.60;;
73452;SDS011;61687;56.232;43.854;2024-03-23T13:44:10;36.20;;;17.45;;
73452;SDS011;61687;56.232;43.854;2024-03-23T13:46:39;44.40;;;20.15;;
73452;SDS011;61687;56.232;43.854;2024-03-23T13:49:05;42.17;;;18.63;;
73452;SDS011;61687;56.232;43.854;2024-03-23T13:51:32;38.53;;;17.98;;
73452;SDS011;61687;56.232;43.854;2024-03-23T13:53:58;37.47;;;17.80;;
73452;SDS011;61687;56.232;43.854;2024-03-23T13:56:28;38.97;;;17.77;;
73452;SDS011;61687;56.232;43.854;2024-03-23T13:58:55;37.10;;;18.23;;
73452;SDS011;61687;56.232;43.854;2024-03-23T14:01:21;43.22;;;19.38;;
73452;SDS011;61687;56.232;43.854;2024-03-23T14:03:48;40.38;;;18.17;;
73452;SDS011;61687;56.232;43.854;2024-03-23T14:06:15;38.15;;;17.92;;
73452;SDS011;61687;56.232;43.854;2024-03-23T14:08:41;41.35;;;19.20;;
73452;SDS011;61687;56.232;43.854;2024-03-23T14:11:09;41.53;;;18.75;;
73452;SDS011;61687;56.232;43.854;2024-03-23T14:13:36;44.60;;;19.02;;
73452;SDS011;61687;56.232;43.854;2024-03-23T14:16:02;37.97;;;18.58;;
73452;SDS011;61687;56.232;43.854;2024-03-23T14:18:29;47.20;;;19.27;;
73452;SDS011;61687;56.232;43.854;2024-03-23T14:20:59;43.67;;;19.55;;
73452;SDS011;61687;56.232;43.854;2024-03-23T14:23:26;43.28;;;20.02;;
73452;SDS011;61687;56.232;43.854;2024-03-23T14:25:58;44.30;;;19.33;;
73452;SDS011;61687;56.232;43.854;2024-03-23T14:28:25;41.17;;;18.35;;
73452;SDS011;61687;56.232;43.854;2024-03-23T14:30:52;36.92;;;18.85;;
73452;SDS011;61687;56.232;43.854;2024-03-23T14:33:21;39.72;;;17.55;;
73452;SDS011;61687;56.232;43.854;2024-03-23T14:35:56;46.03;;;19.30;;
73452;SDS011;61687;56.232;43.854;2024-03-23T14:38:25;38.90;;;19.30;;
73452;SDS011;61687;56.232;43.854;2024-03-23T14:40:51;46.83;;;19.48;;
73452;SDS011;61687;56.232;43.854;2024-03-23T14:43:18;47.17;;;20.27;;
73452;SDS011;61687;56.232;43.854;2024-03-23T14:48:43;43.47;;;19.73;;
73452;SDS011;61687;56.232;43.854;2024-03-23T14:51:10;42.65;;;19.30;;
73452;SDS011;61687;56.232;43.854;2024-03-23T14:53:37;48.75;;;20.35;;
73452;SDS011;61687;56.232;43.854;2024-03-23T14:56:07;43.65;;;20.65;;
73452;SDS011;61687;56.232;43.854;2024-03-23T14:58:36;42.83;;;19.83;;
73452;SDS011;61687;56.232;43.854;2024-03-23T15:01:02;41.88;;;19.80;;
73452;SDS011;61687;56.232;43.854;2024-03-23T15:03:29;41.80;;;20.15;;
73452;SDS011;61687;56.232;43.854;2024-03-23T15:05:55;53.28;;;21.85;;
73452;SDS011;61687;56.232;43.854;2024-03-23T15:08:22;43.80;;;20.73;;
73452;SDS011;61687;56.232;43.854;2024-03-23T15:10:48;41.13;;;18.92;;
73452;SDS011;61687;56.232;43.854;2024-03-23T15:13:14;45.33;;;21.05;;
73452;SDS011;61687;56.232;43.854;2024-03-23T15:15:41;37.25;;;16.90;;
73452;SDS011;61687;56.232;43.854;2024-03-23T15:18:12;43.03;;;19.17;;